• Join FlightAware (Why Join?)
  • Login
  • US Flag 
06:27AM EDT


 

Airport Tracker/Info


-or-


 

Live Flight TrackerFlight Track Log ✈ RLI723 ✈ 10-Jun-2013 ✈ KFMH - KHPN

Flight Track Log - Related Links

Times and Time Zones

All times are in EDT time to prevent confusion due to time zone crossing. See the RLI723 flight status page for this flight to view local times or setup timezone preferences in your user account.

Time Position Orientation Groundspeed Altitude Reporting Facility
EDT Latitude Longitude Course Direction KTS MPH feet Rate Location/Type
06:48AM 41.4661 -71.3986 257° West 187 215 4,500  Level Boston Center
06:49AM 41.4583 -71.4650 261° West 188 216 4,500  Level Boston Center
06:50AM 41.4464 -71.5372 258° West 189 217 4,500  Level Boston Center
06:51AM 41.4344 -71.6094 258° West 188 216 4,500  Level Boston Center
06:52AM 41.4225 -71.6789 257° West 187 215 4,500 -60 Level Boston Center
06:53AM 41.4982 -71.4425 257° West  Level Estimated
06:53AM 41.4103 -71.7453 256° West 187 215 4,400  Level Boston Center
06:54AM 41.4025 -71.8147 262° West 187 215 4,400  Level Boston Center
06:55AM 41.3861 -71.8867 253° West 187 215 4,400  Level Boston Center
06:56AM 41.3761 -71.9614 260° West 188 216 4,500  Climbing Boston Center
06:57AM 41.3639 -72.0253 256° West 186 214 4,400 -60 Descending Boston Center
06:58AM 41.3536 -72.0889 258° West 193 222 4,400  Level Boston Center
06:59AM 41.3414 -72.1608 257° West 191 220 4,400  Level Boston Center
07:00AM 41.3311 -72.2244 258° West 187 215 4,400  Level Boston Center
07:01AM 41.3167 -72.2908 254° West 185 213 4,500 60 Climbing Boston Center
07:03AM 41.3026 -72.3408 249° West  Level FlightAware Approximate
07:10AM 41.2383 -72.6638 255° West  Level FlightAware Approximate
07:11AM 41.2291 -72.7100 255° West  Level FlightAware Approximate
07:12AM 41.2200 -72.7561 255° West  Level FlightAware Approximate
07:13AM 41.2108 -72.8022 255° West  Level FlightAware Approximate
07:14AM 41.2016 -72.8483 255° West  Level FlightAware Approximate
07:15AM 41.1923 -72.8944 255° West  Level FlightAware Approximate
07:16AM 41.1831 -72.9405 255° West  Level FlightAware Approximate
07:17AM 41.1739 -72.9865 255° West  Level FlightAware Approximate
07:18AM 41.1646 -73.0325 255° West  Level FlightAware Approximate
07:19AM 41.1553 -73.0786 255° West  Level FlightAware Approximate
07:20AM 41.1460 -73.1246 255° West  Level FlightAware Approximate
07:21AM 41.1366 -73.1706 255° West  Level FlightAware Approximate
07:22AM 41.1273 -73.2166 255° West  Level FlightAware Approximate
07:23AM 41.1179 -73.2626 255° West  Level FlightAware Approximate
07:24AM 41.1085 -73.3085 255° West  Level FlightAware Approximate
07:25AM 41.0992 -73.3545 257° West  Level FlightAware Approximate
07:26AM 41.0911 -73.4009 257° West  Level FlightAware Approximate
07:27AM 41.0829 -73.4473 257° West  Level FlightAware Approximate
07:28AM 41.0748 -73.4936 257° West  Level FlightAware Approximate
07:29AM 41.0666 -73.5400 257° West  Level FlightAware Approximate
07:30AM 41.0584 -73.5863 257° West  Level FlightAware Approximate
07:31AM 41.0501 -73.6326 257° West  Level FlightAware Approximate
07:32AM 41.0611 -73.6778 288° West  Level FlightAware Approximate
07:33AM 41.0667 -73.7000 288° West  Level FlightAware Approximate
07:34AM 41.0669 -73.7076 288° West  Level Estimated
07:35AM 41.0667 -73.7000 288° West  Level FlightAware Approximate
07:36AM 41.0669 -73.7076 288° West  Level Estimated
07:37AM 41.0667 -73.7000 288° West  Level FlightAware Approximate
07:38AM 41.0669 -73.7076 288° West  Level Estimated
07:39AM 41.0667 -73.7000 288° West  Level FlightAware Approximate
07:40AM 41.0669 -73.7076 288° West  Level Estimated
07:41AM 41.0667 -73.7000 288° West  Level FlightAware Approximate
07:42AM 41.0669 -73.7076 288° West  Level Estimated
07:43AM 41.0667 -73.7000 288° West  Level FlightAware Approximate
07:44AM 41.0669 -73.7076 288° West  Level Estimated
07:45AM 41.0667 -73.7000 288° West  Level FlightAware Approximate
07:46AM 41.0669 -73.7076 288° West  Level Estimated
07:47AM 41.0667 -73.7000 288° West  Level FlightAware Approximate
07:48AM 41.0669 -73.7076 288° West  Level Estimated
07:49AM 41.0667 -73.7000 288° West  Level FlightAware Approximate
07:50AM 41.0669 -73.7076 288° West  Level Estimated
07:51AM 41.0667 -73.7000 288° West  Level FlightAware Approximate
07:52AM 41.0669 -73.7076 288° West  Level Estimated
07:53AM 41.0667 -73.7000 288° West  Level FlightAware Approximate
07:54AM 41.0669 -73.7076 288° West  Level Estimated